Airfield :
LOGIN :

Register | Disclaimer

   EN    FR    IT 

 










Legend :    VFR   Marginal VFR   IFR   Intensive IFR   Very Intensive IFR
Visi :
Ceiling :
>= 8 km
>= 3000ft
5 to 8 km
1000 to 3000 ft
1500m to 5 km
500 to 1000 ft
800 to 1500m
200 to 500 ft
< 800m
< 200 ft
Symbols :   Thunderstorms  Fog  Heavy snow  Heavy precipitations  Wind > 20 kt
SIGMETs :     Misc.  Thunderstorms  Icing  Turbulence  Mountain Waves  Volcanic Ashes






- Airport Elevation : 407 ft


EGDM - MoD Boscombe Down Amesbury

CURRENT METAR :
  • 270820Z 36015KT 4000 -SN BKN004 OVC026 01/01 Q0996 TEMPO 5000 -RADZ RMK YLO2 TEMPO YLO2

EXPIRED METARs :
  • 270806Z 36016KT 5000 -SN BKN003 OVC018 01/01 Q0995 TEMPO 4000 RMK YLO2 TEMPO YLO2
  • 270750Z 36015KT 8000 -RASN BKN004 OVC018 01/01 Q0995 TEMPO 4000 RMK YLO2 TEMPO YLO2
  • 270650Z 03012KT 7000 -RADZ BKN009 OVC016 02/02 Q0993 RMK GRN
  • 270550Z AUTO 07007KT 9999 RA BKN007/// 03/03 Q0993

TAF TAF EGDM
Valid from the 27 at 09:00 until the 27 at 18:00 UTC


270745Z 2709/2718 01010KT 8000 -RA BKN007
TEMPO 2709/2711 6000 -RADZ BKN005
PROB30
TEMPO 2709/2710 4000 -RASN BKN004
BECMG 2710/2713 34015G25KT NSW SCT025



MET'MAP, your aeronautical weather chart ! - Copyright ORBIFLY December 2007 - Disclaimer

ORBIFLY MET'MAP TEAM :

Programming & Development : Alexandra Zaïnal
Concept & original design : Baudouin d'Aumeries
Assistance for programming : Marc-Olivier Méhu
Technical & hardware support : Manuel Goepfert

Contact : metmap@orbifly.com




SOURCES & CREDITS :

   NOAA